Del Norte — WDC2280 — position and weather

sailwx.info

Track history (hours):
 
Tides and Currents Weather Stations Pressure Air Temp Water Temp Dewpoint Dewpoint Depression Visibility Wind Speed Wind Dir Waves Ship Positions

Del Norte

Owner: Golden Gate Bridge,Hwy & Transportation District, Larkspur, CA. More information available from US FCC via Universal Licensing System and Coast Guard Vessel Documentation Center.

Last reported at 2017-May-15 18:55 UTC. Time now 2017-May-24 17:45 UTC.
Position N 37°57' W 122°31'.
Warning: this ship's position is 8 days out of date.

Length 48 m.

Type: High speed craft. MMSI: 366990520.

Date/timePositionNaut miles runAvg speedWind from/ knotsBaromVisibWave heightAir tempDewpointWater temp
2017-May-15 18:55N 37°57' W 122°31'2 5.1
2017-May-15 18:31N 37°56' W 122°28'0 0.6
2017-May-15 18:01N 37°56' W 122°28'  
2017-May-08 20:57N 37°57' W 122°31'4 8.9
2017-May-08 20:30N 37°55' W 122°26'1 2.1
2017-May-08 20:00N 37°54' W 122°27'2 4.5
2017-May-08 19:30N 37°57' W 122°27'713.4
2017-May-08 19:00N 38°02' W 122°22'3 6.3
2017-May-08 18:30N 38°00' W 122°25'510.6
2017-May-08 18:00N 37°56' W 122°30'  
Track history (hours):
 
Tides and Currents Weather Stations Pressure Air Temp Water Temp Dewpoint Dewpoint Depression Visibility Wind Speed Wind Dir Waves Ship Positions

Del Norte

Owner: Golden Gate Bridge,Hwy & Transportation District, Larkspur, CA. More information available from US FCC via Universal Licensing System and Coast Guard Vessel Documentation Center.

Last reported at 2017-May-15 18:55 UTC. Time now 2017-May-24 17:45 UTC.
Position N 37°57' W 122°31'.
Warning: this ship's position is 8 days out of date.

Length 48 m.

Type: High speed craft. MMSI: 366990520.

Date/timePositionNaut miles runAvg speedWind from/ knotsBaromVisibWave heightAir tempDewpointWater temp
2017-May-15 18:55N 37°57' W 122°31'2 5.1
2017-May-15 18:31N 37°56' W 122°28'0 0.6
2017-May-15 18:01N 37°56' W 122°28'  
2017-May-08 20:57N 37°57' W 122°31'4 8.9
2017-May-08 20:30N 37°55' W 122°26'1 2.1
2017-May-08 20:00N 37°54' W 122°27'2 4.5
2017-May-08 19:30N 37°57' W 122°27'713.4
2017-May-08 19:00N 38°02' W 122°22'3 6.3
2017-May-08 18:30N 38°00' W 122°25'510.6
2017-May-08 18:00N 37°56' W 122°30'  

Dump ship's entire track history